sensor_id;sensor_type;location;lat;lon;timestamp;pressure;altitude;pressure_sealevel;temperature;humidity
76994;BME280;66749;47.406;18.822;2023-02-12T00:00:14;101703.63;;;4.73;75.05
76994;BME280;66749;47.406;18.822;2023-02-12T00:00:46;101712.25;;;4.77;75.61
76994;BME280;66749;47.406;18.822;2023-02-12T00:01:19;101706.22;;;4.73;75.26
76994;BME280;66749;47.406;18.822;2023-02-12T00:01:51;101705.41;;;4.69;75.71
76994;BME280;66749;47.406;18.822;2023-02-12T00:02:23;101706.28;;;4.70;75.80
76994;BME280;66749;47.406;18.822;2023-02-12T00:02:55;101711.41;;;4.73;74.94
76994;BME280;66749;47.406;18.822;2023-02-12T00:03:26;101707.13;;;4.70;74.90
76994;BME280;66749;47.406;18.822;2023-02-12T00:03:58;101708.84;;;4.71;75.28
76994;BME280;66749;47.406;18.822;2023-02-12T00:04:30;101702.81;;;4.71;75.18
76994;BME280;66749;47.406;18.822;2023-02-12T00:05:02;101706.22;;;4.73;75.43
76994;BME280;66749;47.406;18.822;2023-02-12T00:05:36;101702.81;;;4.71;75.13
76994;BME280;66749;47.406;18.822;2023-02-12T00:06:09;101714.00;;;4.71;75.13
76994;BME280;66749;47.406;18.822;2023-02-12T00:06:43;101707.97;;;4.71;74.92
76994;BME280;66749;47.406;18.822;2023-02-12T00:07:15;101717.47;;;4.67;75.49
76994;BME280;66749;47.406;18.822;2023-02-12T00:07:47;101714.97;;;4.63;74.85
76994;BME280;66749;47.406;18.822;2023-02-12T00:08:19;101712.38;;;4.63;75.48
76994;BME280;66749;47.406;18.822;2023-02-12T00:08:53;101716.66;;;4.64;75.46
76994;BME280;66749;47.406;18.822;2023-02-12T00:09:25;101711.53;;;4.62;75.77
76994;BME280;66749;47.406;18.822;2023-02-12T00:09:57;101708.94;;;4.61;75.49
76994;BME280;66749;47.406;18.822;2023-02-12T00:10:28;101713.25;;;4.62;75.16
76994;BME280;66749;47.406;18.822;2023-02-12T00:11:13;101714.16;;;4.56;75.32
76994;BME280;66749;47.406;18.822;2023-02-12T00:11:45;101726.25;;;4.51;75.58
76994;BME280;66749;47.406;18.822;2023-02-12T00:12:17;101719.38;;;4.52;75.61
76994;BME280;66749;47.406;18.822;2023-02-12T00:12:48;101717.63;;;4.52;75.31
76994;BME280;66749;47.406;18.822;2023-02-12T00:13:20;101723.72;;;4.48;75.67
76994;BME280;66749;47.406;18.822;2023-02-12T00:13:53;101718.56;;;4.47;75.74
76994;BME280;66749;47.406;18.822;2023-02-12T00:14:24;101726.31;;;4.45;75.80
76994;BME280;66749;47.406;18.822;2023-02-12T00:14:56;101722.94;;;4.40;75.79
76994;BME280;66749;47.406;18.822;2023-02-12T00:15:28;101726.38;;;4.37;76.29
76994;BME280;66749;47.406;18.822;2023-02-12T00:16:04;101723.81;;;4.39;76.23
76994;BME280;66749;47.406;18.822;2023-02-12T00:16:36;101719.50;;;4.39;75.86
76994;BME280;66749;47.406;18.822;2023-02-12T00:17:07;101722.13;;;4.33;76.19
76994;BME280;66749;47.406;18.822;2023-02-12T00:17:39;101721.28;;;4.33;76.55
76994;BME280;66749;47.406;18.822;2023-02-12T00:18:11;101725.59;;;4.32;76.49
76994;BME280;66749;47.406;18.822;2023-02-12T00:18:43;101722.13;;;4.30;76.66
76994;BME280;66749;47.406;18.822;2023-02-12T00:19:15;101727.34;;;4.29;77.10
76994;BME280;66749;47.406;18.822;2023-02-12T00:19:47;101724.75;;;4.27;76.42
76994;BME280;66749;47.406;18.822;2023-02-12T00:20:19;101718.75;;;4.25;77.24
76994;BME280;66749;47.406;18.822;2023-02-12T00:20:51;101716.19;;;4.25;76.73
76994;BME280;66749;47.406;18.822;2023-02-12T00:21:23;101719.63;;;4.24;76.83
76994;BME280;66749;47.406;18.822;2023-02-12T00:21:55;101723.06;;;4.23;76.68
76994;BME280;66749;47.406;18.822;2023-02-12T00:22:27;101717.91;;;4.22;77.26
76994;BME280;66749;47.406;18.822;2023-02-12T00:23:00;101721.38;;;4.21;76.97
76994;BME280;66749;47.406;18.822;2023-02-12T00:23:31;101722.22;;;4.21;77.06
76994;BME280;66749;47.406;18.822;2023-02-12T00:24:03;101714.53;;;4.18;77.17
76994;BME280;66749;47.406;18.822;2023-02-12T00:24:35;101714.53;;;4.18;77.22
76994;BME280;66749;47.406;18.822;2023-02-12T00:25:07;101712.84;;;4.12;77.31
76994;BME280;66749;47.406;18.822;2023-02-12T00:25:41;101717.16;;;4.12;77.37
76994;BME280;66749;47.406;18.822;2023-02-12T00:26:16;101714.59;;;4.09;77.17
76994;BME280;66749;47.406;18.822;2023-02-12T00:26:48;101711.16;;;4.08;77.41
76994;BME280;66749;47.406;18.822;2023-02-12T00:27:21;101711.97;;;4.12;77.03
76994;BME280;66749;47.406;18.822;2023-02-12T00:27:53;101713.72;;;4.11;77.18
76994;BME280;66749;47.406;18.822;2023-02-12T00:28:25;101718.03;;;4.08;77.36
76994;BME280;66749;47.406;18.822;2023-02-12T00:28:57;101718.03;;;4.06;77.67
76994;BME280;66749;47.406;18.822;2023-02-12T00:29:29;101716.31;;;4.07;77.57
76994;BME280;66749;47.406;18.822;2023-02-12T00:30:01;101718.06;;;4.05;78.17
76994;BME280;66749;47.406;18.822;2023-02-12T00:30:32;101718.91;;;4.05;78.34
76994;BME280;66749;47.406;18.822;2023-02-12T00:31:06;101724.94;;;4.06;77.89
76994;BME280;66749;47.406;18.822;2023-02-12T00:31:38;101720.66;;;4.03;77.94
76994;BME280;66749;47.406;18.822;2023-02-12T00:32:10;101722.38;;;4.04;77.88
76994;BME280;66749;47.406;18.822;2023-02-12T00:32:44;101718.06;;;4.05;78.02
76994;BME280;66749;47.406;18.822;2023-02-12T00:33:16;101718.09;;;4.02;77.88
76994;BME280;66749;47.406;18.822;2023-02-12T00:33:47;101722.41;;;4.01;78.10
76994;BME280;66749;47.406;18.822;2023-02-12T00:34:19;101721.56;;;4.01;78.51
76994;BME280;66749;47.406;18.822;2023-02-12T00:34:51;101718.06;;;4.03;78.18
76994;BME280;66749;47.406;18.822;2023-02-12T00:35:23;101719.81;;;4.01;78.21
76994;BME280;66749;47.406;18.822;2023-02-12T00:35:57;101721.53;;;4.02;78.34
76994;BME280;66749;47.406;18.822;2023-02-12T00:36:30;101719.81;;;4.03;78.76
76994;BME280;66749;47.406;18.822;2023-02-12T00:37:02;101721.53;;;4.02;78.71
76994;BME280;66749;47.406;18.822;2023-02-12T00:37:34;101724.97;;;4.03;78.61
76994;BME280;66749;47.406;18.822;2023-02-12T00:38:06;101727.53;;;4.06;78.54
76994;BME280;66749;47.406;18.822;2023-02-12T00:38:37;101724.94;;;4.04;78.63
76994;BME280;66749;47.406;18.822;2023-02-12T00:39:09;101732.69;;;4.06;78.37
76994;BME280;66749;47.406;18.822;2023-02-12T00:39:41;101729.22;;;4.07;78.67
76994;BME280;66749;47.406;18.822;2023-02-12T00:40:13;101723.19;;;4.08;78.48
76994;BME280;66749;47.406;18.822;2023-02-12T00:40:45;101731.81;;;4.08;78.56
76994;BME280;66749;47.406;18.822;2023-02-12T00:41:17;101730.09;;;4.09;78.41
76994;BME280;66749;47.406;18.822;2023-02-12T00:41:50;101729.22;;;4.11;78.69
76994;BME280;66749;47.406;18.822;2023-02-12T00:42:21;101729.19;;;4.13;78.56
76994;BME280;66749;47.406;18.822;2023-02-12T00:42:53;101725.72;;;4.17;78.54
76994;BME280;66749;47.406;18.822;2023-02-12T00:43:25;101728.31;;;4.17;78.68
76994;BME280;66749;47.406;18.822;2023-02-12T00:43:56;101737.78;;;4.18;78.40
76994;BME280;66749;47.406;18.822;2023-02-12T00:44:28;101728.25;;;4.22;78.53
76994;BME280;66749;47.406;18.822;2023-02-12T00:45:00;101731.72;;;4.21;78.52
76994;BME280;66749;47.406;18.822;2023-02-12T00:45:32;101734.28;;;4.21;78.98
76994;BME280;66749;47.406;18.822;2023-02-12T00:46:03;101728.22;;;4.23;78.34
76994;BME280;66749;47.406;18.822;2023-02-12T00:46:37;101728.25;;;4.22;78.46
76994;BME280;66749;47.406;18.822;2023-02-12T00:47:09;101729.09;;;4.25;78.27
76994;BME280;66749;47.406;18.822;2023-02-12T00:47:40;101736.84;;;4.25;78.51
76994;BME280;66749;47.406;18.822;2023-02-12T00:48:13;101725.63;;;4.26;78.18
76994;BME280;66749;47.406;18.822;2023-02-12T00:48:45;101731.66;;;4.27;78.56
76994;BME280;66749;47.406;18.822;2023-02-12T00:49:17;101734.25;;;4.25;78.52
76994;BME280;66749;47.406;18.822;2023-02-12T00:49:50;101735.13;;;4.26;78.67
76994;BME280;66749;47.406;18.822;2023-02-12T00:50:22;101729.97;;;4.24;78.75
76994;BME280;66749;47.406;18.822;2023-02-12T00:50:54;101734.25;;;4.27;78.31
76994;BME280;66749;47.406;18.822;2023-02-12T00:51:25;101729.06;;;4.28;78.76
76994;BME280;66749;47.406;18.822;2023-02-12T00:51:57;101726.47;;;4.28;78.68
76994;BME280;66749;47.406;18.822;2023-02-12T00:52:29;101724.75;;;4.29;79.18
76994;BME280;66749;47.406;18.822;2023-02-12T00:53:00;101725.59;;;4.29;78.55
76994;BME280;66749;47.406;18.822;2023-02-12T00:53:33;101727.34;;;4.29;78.43
76994;BME280;66749;47.406;18.822;2023-02-12T00:54:04;101727.31;;;4.32;78.72
76994;BME280;66749;47.406;18.822;2023-02-12T00:54:36;101724.72;;;4.30;79.20
76994;BME280;66749;47.406;18.822;2023-02-12T00:55:08;101725.63;;;4.31;79.07
76994;BME280;66749;47.406;18.822;2023-02-12T00:55:40;101732.47;;;4.30;79.39
76994;BME280;66749;47.406;18.822;2023-02-12T00:56:12;101713.56;;;4.31;79.25
76994;BME280;66749;47.406;18.822;2023-02-12T00:56:43;101724.72;;;4.30;79.48
76994;BME280;66749;47.406;18.822;2023-02-12T00:57:15;101725.56;;;4.35;79.14
76994;BME280;66749;47.406;18.822;2023-02-12T00:57:47;101710.94;;;4.33;78.86
76994;BME280;66749;47.406;18.822;2023-02-12T00:58:18;101713.53;;;4.33;79.25
76994;BME280;66749;47.406;18.822;2023-02-12T00:58:50;101715.22;;;4.35;79.56
76994;BME280;66749;47.406;18.822;2023-02-12T00:59:23;101710.94;;;4.33;79.23
76994;BME280;66749;47.406;18.822;2023-02-12T00:59:54;101723.84;;;4.34;79.30
76994;BME280;66749;47.406;18.822;2023-02-12T01:00:26;101722.97;;;4.35;78.91
76994;BME280;66749;47.406;18.822;2023-02-12T01:00:58;101727.31;;;4.33;79.17
76994;BME280;66749;47.406;18.822;2023-02-12T01:01:29;101723.00;;;4.34;79.25
76994;BME280;66749;47.406;18.822;2023-02-12T01:02:01;101716.97;;;4.33;79.06
76994;BME280;66749;47.406;18.822;2023-02-12T01:02:33;101716.09;;;4.33;79.55
76994;BME280;66749;47.406;18.822;2023-02-12T01:03:05;101728.19;;;4.32;79.59
76994;BME280;66749;47.406;18.822;2023-02-12T01:03:37;101725.59;;;4.32;79.60
76994;BME280;66749;47.406;18.822;2023-02-12T01:04:09;101722.13;;;4.33;79.42
76994;BME280;66749;47.406;18.822;2023-02-12T01:04:40;101722.16;;;4.32;79.56
76994;BME280;66749;47.406;18.822;2023-02-12T01:05:12;101721.28;;;4.33;79.06
76994;BME280;66749;47.406;18.822;2023-02-12T01:05:44;101723.00;;;4.34;79.70
76994;BME280;66749;47.406;18.822;2023-02-12T01:06:16;101718.72;;;4.31;79.05
76994;BME280;66749;47.406;18.822;2023-02-12T01:06:48;101721.31;;;4.31;79.55
76994;BME280;66749;47.406;18.822;2023-02-12T01:07:20;101719.56;;;4.32;79.95
76994;BME280;66749;47.406;18.822;2023-02-12T01:07:52;101717.84;;;4.32;79.54
76994;BME280;66749;47.406;18.822;2023-02-12T01:08:24;101712.69;;;4.31;79.41
76994;BME280;66749;47.406;18.822;2023-02-12T01:08:56;101718.72;;;4.31;79.50
76994;BME280;66749;47.406;18.822;2023-02-12T01:09:28;101710.97;;;4.31;79.25
76994;BME280;66749;47.406;18.822;2023-02-12T01:10:00;101713.53;;;4.30;79.76
76994;BME280;66749;47.406;18.822;2023-02-12T01:10:31;101716.97;;;4.30;79.98
76994;BME280;66749;47.406;18.822;2023-02-12T01:11:04;101717.84;;;4.29;80.37
76994;BME280;66749;47.406;18.822;2023-02-12T01:11:36;101717.84;;;4.29;79.87
76994;BME280;66749;47.406;18.822;2023-02-12T01:12:08;101720.44;;;4.32;79.84
76994;BME280;66749;47.406;18.822;2023-02-12T01:12:39;101723.00;;;4.32;80.02
76994;BME280;66749;47.406;18.822;2023-02-12T01:13:13;101719.56;;;4.29;80.19
76994;BME280;66749;47.406;18.822;2023-02-12T01:13:45;101720.44;;;4.29;79.77
76994;BME280;66749;47.406;18.822;2023-02-12T01:14:16;101712.69;;;4.31;80.04
76994;BME280;66749;47.406;18.822;2023-02-12T01:14:48;101712.69;;;4.31;80.13
76994;BME280;66749;47.406;18.822;2023-02-12T01:15:20;101720.44;;;4.29;80.14
76994;BME280;66749;47.406;18.822;2023-02-12T01:16:08;101718.72;;;4.28;80.55
76994;BME280;66749;47.406;18.822;2023-02-12T01:16:43;101717.00;;;4.29;80.43
76994;BME280;66749;47.406;18.822;2023-02-12T01:17:15;101717.84;;;4.31;80.33
76994;BME280;66749;47.406;18.822;2023-02-12T01:17:47;101718.75;;;4.25;80.50
76994;BME280;66749;47.406;18.822;2023-02-12T01:18:19;101723.03;;;4.28;80.40
76994;BME280;66749;47.406;18.822;2023-02-12T01:18:52;101712.69;;;4.28;80.86
76994;BME280;66749;47.406;18.822;2023-02-12T01:19:26;101731.63;;;4.30;80.61
76994;BME280;66749;47.406;18.822;2023-02-12T01:19:58;101730.78;;;4.28;80.62
76994;BME280;66749;47.406;18.822;2023-02-12T01:20:30;101723.00;;;4.29;80.97
76994;BME280;66749;47.406;18.822;2023-02-12T01:21:08;101723.88;;;4.28;80.21
76994;BME280;66749;47.406;18.822;2023-02-12T01:21:40;101725.63;;;4.28;80.53
76994;BME280;66749;47.406;18.822;2023-02-12T01:22:11;101718.72;;;4.31;80.61
76994;BME280;66749;47.406;18.822;2023-02-12T01:22:43;101723.00;;;4.29;80.55
76994;BME280;66749;47.406;18.822;2023-02-12T01:23:15;101717.84;;;4.32;80.43
76994;BME280;66749;47.406;18.822;2023-02-12T01:23:47;101722.16;;;4.32;80.46
76994;BME280;66749;47.406;18.822;2023-02-12T01:24:19;101722.13;;;4.33;80.62
76994;BME280;66749;47.406;18.822;2023-02-12T01:24:51;101728.19;;;4.32;80.42
76994;BME280;66749;47.406;18.822;2023-02-12T01:25:23;101728.19;;;4.31;80.50
76994;BME280;66749;47.406;18.822;2023-02-12T01:25:54;101720.44;;;4.28;80.56
76994;BME280;66749;47.406;18.822;2023-02-12T01:26:30;101727.31;;;4.30;80.41
76994;BME280;66749;47.406;18.822;2023-02-12T01:27:02;101720.44;;;4.31;80.67
76994;BME280;66749;47.406;18.822;2023-02-12T01:27:34;101726.44;;;4.33;80.21
76994;BME280;66749;47.406;18.822;2023-02-12T01:28:05;101728.19;;;4.29;80.44
76994;BME280;66749;47.406;18.822;2023-02-12T01:28:39;101717.88;;;4.28;80.72
76994;BME280;66749;47.406;18.822;2023-02-12T01:29:11;101720.44;;;4.29;80.50
76994;BME280;66749;47.406;18.822;2023-02-12T01:29:43;101722.13;;;4.30;80.89
76994;BME280;66749;47.406;18.822;2023-02-12T01:30:15;101723.88;;;4.30;80.78
76994;BME280;66749;47.406;18.822;2023-02-12T01:30:47;101718.69;;;4.33;80.62
76994;BME280;66749;47.406;18.822;2023-02-12T01:31:21;101716.09;;;4.33;80.31
76994;BME280;66749;47.406;18.822;2023-02-12T01:31:54;101704.94;;;4.31;80.57
76994;BME280;66749;47.406;18.822;2023-02-12T01:32:26;101707.53;;;4.31;80.90
76994;BME280;66749;47.406;18.822;2023-02-12T01:32:58;101713.56;;;4.28;80.24
76994;BME280;66749;47.406;18.822;2023-02-12T01:33:31;101700.66;;;4.27;81.10
76994;BME280;66749;47.406;18.822;2023-02-12T01:34:04;101702.38;;;4.28;80.54
76994;BME280;66749;47.406;18.822;2023-02-12T01:34:36;101704.97;;;4.26;80.58
76994;BME280;66749;47.406;18.822;2023-02-12T01:35:08;101699.81;;;4.26;80.78
76994;BME280;66749;47.406;18.822;2023-02-12T01:35:40;101697.25;;;4.25;80.80
76994;BME280;66749;47.406;18.822;2023-02-12T01:36:12;101707.56;;;4.23;80.77
76994;BME280;66749;47.406;18.822;2023-02-12T01:36:44;101698.97;;;4.23;80.30
76994;BME280;66749;47.406;18.822;2023-02-12T01:37:16;101705.03;;;4.20;80.75
76994;BME280;66749;47.406;18.822;2023-02-12T01:37:47;101701.59;;;4.18;80.39
76994;BME280;66749;47.406;18.822;2023-02-12T01:38:19;101705.91;;;4.17;80.54
76994;BME280;66749;47.406;18.822;2023-02-12T01:38:51;101707.63;;;4.15;80.66
76994;BME280;66749;47.406;18.822;2023-02-12T01:39:22;101702.47;;;4.15;80.99
76994;BME280;66749;47.406;18.822;2023-02-12T01:39:54;101702.47;;;4.14;80.91
76994;BME280;66749;47.406;18.822;2023-02-12T01:40:26;101696.47;;;4.12;81.01
76994;BME280;66749;47.406;18.822;2023-02-12T01:41:06;101700.78;;;4.11;81.11
76994;BME280;66749;47.406;18.822;2023-02-12T01:41:41;101698.22;;;4.10;81.51
76994;BME280;66749;47.406;18.822;2023-02-12T01:42:14;101698.22;;;4.07;81.13
76994;BME280;66749;47.406;18.822;2023-02-12T01:42:46;101699.09;;;4.07;81.26
76994;BME280;66749;47.406;18.822;2023-02-12T01:43:18;101693.06;;;4.07;81.45
76994;BME280;66749;47.406;18.822;2023-02-12T01:44:44;101699.94;;;4.08;80.74
76994;BME280;66749;47.406;18.822;2023-02-12T01:45:54;101697.41;;;4.05;81.45
76994;BME280;66749;47.406;18.822;2023-02-12T01:46:26;101704.25;;;4.07;80.88
76994;BME280;66749;47.406;18.822;2023-02-12T01:47:02;101708.56;;;4.07;81.21
76994;BME280;66749;47.406;18.822;2023-02-12T01:47:34;101704.31;;;4.01;81.20
76994;BME280;66749;47.406;18.822;2023-02-12T01:48:06;101712.94;;;4.02;81.76
76994;BME280;66749;47.406;18.822;2023-02-12T01:48:42;101699.16;;;4.01;81.62
76994;BME280;66749;47.406;18.822;2023-02-12T01:49:21;101707.72;;;4.05;81.85
76994;BME280;66749;47.406;18.822;2023-02-12T01:49:55;101709.50;;;4.01;81.46
76994;BME280;66749;47.406;18.822;2023-02-12T01:50:27;101704.31;;;4.01;81.70
76994;BME280;66749;47.406;18.822;2023-02-12T01:51:01;101706.03;;;4.02;82.35
76994;BME280;66749;47.406;18.822;2023-02-12T01:51:35;101702.59;;;4.02;81.57
76994;BME280;66749;47.406;18.822;2023-02-12T01:52:13;101704.31;;;4.01;81.61
76994;BME280;66749;47.406;18.822;2023-02-12T01:52:50;101703.50;;;3.96;82.19
76994;BME280;66749;47.406;18.822;2023-02-12T01:53:33;101700.88;;;3.99;81.95
76994;BME280;66749;47.406;18.822;2023-02-12T01:54:07;101700.91;;;3.98;82.04
76994;BME280;66749;47.406;18.822;2023-02-12T01:54:43;101694.00;;;4.01;82.17
76994;BME280;66749;47.406;18.822;2023-02-12T01:55:15;101693.97;;;4.00;82.02
76994;BME280;66749;47.406;18.822;2023-02-12T01:55:49;101691.41;;;4.00;81.76
76994;BME280;66749;47.406;18.822;2023-02-12T01:56:24;101692.28;;;3.97;82.42
76994;BME280;66749;47.406;18.822;2023-02-12T01:56:56;101694.00;;;3.98;81.72
76994;BME280;66749;47.406;18.822;2023-02-12T01:57:31;101682.00;;;3.93;82.72
76994;BME280;66749;47.406;18.822;2023-02-12T01:58:04;101681.16;;;3.94;82.11
76994;BME280;66749;47.406;18.822;2023-02-12T01:58:42;101672.56;;;3.90;82.42
76994;BME280;66749;47.406;18.822;2023-02-12T01:59:15;101677.72;;;3.90;82.39
76994;BME280;66749;47.406;18.822;2023-02-12T01:59:53;101676.00;;;3.89;82.42
76994;BME280;66749;47.406;18.822;2023-02-12T02:00:26;101675.19;;;3.85;82.50
76994;BME280;66749;47.406;18.822;2023-02-12T02:01:01;101664.00;;;3.86;82.22
76994;BME280;66749;47.406;18.822;2023-02-12T02:01:33;101670.88;;;3.84;81.96
76994;BME280;66749;47.406;18.822;2023-02-12T02:02:07;101671.75;;;3.83;82.65
76994;BME280;66749;47.406;18.822;2023-02-12T02:02:38;101667.44;;;3.84;82.68
76994;BME280;66749;47.406;18.822;2023-02-12T02:03:11;101664.00;;;3.83;82.66
76994;BME280;66749;47.406;18.822;2023-02-12T02:03:47;101670.03;;;3.82;82.27
76994;BME280;66749;47.406;18.822;2023-02-12T02:04:26;101667.44;;;3.82;82.85
76994;BME280;66749;47.406;18.822;2023-02-12T02:05:02;101668.31;;;3.81;82.59
76994;BME280;66749;47.406;18.822;2023-02-12T02:06:17;101670.06;;;3.79;82.65
76994;BME280;66749;47.406;18.822;2023-02-12T02:07:10;101680.34;;;3.82;82.49
76994;BME280;66749;47.406;18.822;2023-02-12T02:07:43;101674.34;;;3.80;82.66
76994;BME280;66749;47.406;18.822;2023-02-12T02:08:15;101676.09;;;3.78;82.44
76994;BME280;66749;47.406;18.822;2023-02-12T02:08:48;101678.66;;;3.80;82.43
76994;BME280;66749;47.406;18.822;2023-02-12T02:09:20;101675.22;;;3.78;82.41
76994;BME280;66749;47.406;18.822;2023-02-12T02:09:53;101684.69;;;3.77;82.57
76994;BME280;66749;47.406;18.822;2023-02-12T02:10:25;101680.41;;;3.75;82.53
76994;BME280;66749;47.406;18.822;2023-02-12T02:10:56;101681.25;;;3.75;82.64
76994;BME280;66749;47.406;18.822;2023-02-12T02:11:28;101682.97;;;3.78;82.60
76994;BME280;66749;47.406;18.822;2023-02-12T02:12:18;101683.81;;;3.80;82.65
76994;BME280;66749;47.406;18.822;2023-02-12T02:13:09;101688.19;;;3.73;82.56
76994;BME280;66749;47.406;18.822;2023-02-12T02:14:00;101705.38;;;3.74;82.85
76994;BME280;66749;47.406;18.822;2023-02-12T02:14:54;101699.34;;;3.75;82.15
76994;BME280;66749;47.406;18.822;2023-02-12T02:15:29;101696.78;;;3.69;82.55
76994;BME280;66749;47.406;18.822;2023-02-12T02:16:25;101695.06;;;3.73;82.32
76994;BME280;66749;47.406;18.822;2023-02-12T02:18:10;101704.53;;;3.69;82.99
76994;BME280;66749;47.406;18.822;2023-02-12T02:18:57;101702.81;;;3.70;82.21
76994;BME280;66749;47.406;18.822;2023-02-12T02:23:26;101708.88;;;3.61;82.42
76994;BME280;66749;47.406;18.822;2023-02-12T02:26:58;101709.81;;;3.55;82.00
76994;BME280;66749;47.406;18.822;2023-02-12T02:32:33;101725.38;;;3.42;83.03
76994;BME280;66749;47.406;18.822;2023-02-12T02:33:14;101713.31;;;3.38;83.29
76994;BME280;66749;47.406;18.822;2023-02-12T02:34:19;101721.91;;;3.44;82.92
76994;BME280;66749;47.406;18.822;2023-02-12T02:35:14;101720.19;;;3.45;83.03
76994;BME280;66749;47.406;18.822;2023-02-12T02:37:37;101731.38;;;3.44;82.90
76994;BME280;66749;47.406;18.822;2023-02-12T02:39:54;101727.94;;;3.39;83.28
76994;BME280;66749;47.406;18.822;2023-02-12T02:40:43;101721.06;;;3.38;83.00
76994;BME280;66749;47.406;18.822;2023-02-12T02:41:30;101727.13;;;3.35;83.38
76994;BME280;66749;47.406;18.822;2023-02-12T02:42:15;101738.28;;;3.31;83.68
76994;BME280;66749;47.406;18.822;2023-02-12T02:43:08;101738.28;;;3.31;84.11
76994;BME280;66749;47.406;18.822;2023-02-12T02:43:47;101735.72;;;3.36;84.02
76994;BME280;66749;47.406;18.822;2023-02-12T02:44:31;101737.44;;;3.35;83.42
76994;BME280;66749;47.406;18.822;2023-02-12T02:45:20;101738.31;;;3.32;84.56
76994;BME280;66749;47.406;18.822;2023-02-12T02:46:10;101740.00;;;3.35;84.37
76994;BME280;66749;47.406;18.822;2023-02-12T02:46:47;101733.16;;;3.32;84.28
76994;BME280;66749;47.406;18.822;2023-02-12T02:47:24;101744.31;;;3.34;84.67
76994;BME280;66749;47.406;18.822;2023-02-12T02:48:13;101746.91;;;3.33;84.44
76994;BME280;66749;47.406;18.822;2023-02-12T02:48:53;101743.44;;;3.36;84.50
76994;BME280;66749;47.406;18.822;2023-02-12T02:49:35;101743.44;;;3.36;84.27
76994;BME280;66749;47.406;18.822;2023-02-12T02:50:12;101747.72;;;3.38;84.71
76994;BME280;66749;47.406;18.822;2023-02-12T02:50:49;101751.16;;;3.37;85.08
76994;BME280;66749;47.406;18.822;2023-02-12T02:51:28;101742.56;;;3.38;84.90
76994;BME280;66749;47.406;18.822;2023-02-12T02:52:11;101745.13;;;3.40;84.35
76994;BME280;66749;47.406;18.822;2023-02-12T02:52:55;101752.91;;;3.37;84.44
76994;BME280;66749;47.406;18.822;2023-02-12T02:53:35;101746.88;;;3.36;84.84
76994;BME280;66749;47.406;18.822;2023-02-12T02:54:13;101741.72;;;3.34;84.91
76994;BME280;66749;47.406;18.822;2023-02-12T02:54:54;101741.72;;;3.38;84.91
76994;BME280;66749;47.406;18.822;2023-02-12T02:55:35;101744.31;;;3.34;84.37
76994;BME280;66749;47.406;18.822;2023-02-12T02:56:15;101736.56;;;3.34;84.99
76994;BME280;66749;47.406;18.822;2023-02-12T02:56:51;101741.72;;;3.34;84.67
76994;BME280;66749;47.406;18.822;2023-02-12T02:57:30;101748.63;;;3.32;85.03
76994;BME280;66749;47.406;18.822;2023-02-12T02:58:09;101743.44;;;3.36;85.10
76994;BME280;66749;47.406;18.822;2023-02-12T02:58:49;101746.91;;;3.34;84.78
76994;BME280;66749;47.406;18.822;2023-02-12T02:59:28;101749.47;;;3.34;85.11
76994;BME280;66749;47.406;18.822;2023-02-12T03:00:15;101750.31;;;3.38;84.93
76994;BME280;66749;47.406;18.822;2023-02-12T03:00:58;101750.31;;;3.38;85.04
76994;BME280;66749;47.406;18.822;2023-02-12T03:01:40;101748.59;;;3.39;84.98
76994;BME280;66749;47.406;18.822;2023-02-12T03:02:26;101753.75;;;3.37;85.14
76994;BME280;66749;47.406;18.822;2023-02-12T03:03:07;101752.03;;;3.38;84.65
76994;BME280;66749;47.406;18.822;2023-02-12T03:03:50;101755.50;;;3.35;84.30
76994;BME280;66749;47.406;18.822;2023-02-12T03:04:35;101744.28;;;3.38;84.23
76994;BME280;66749;47.406;18.822;2023-02-12T03:05:29;101750.31;;;3.32;84.85
76994;BME280;66749;47.406;18.822;2023-02-12T03:06:10;101755.50;;;3.35;84.54
76994;BME280;66749;47.406;18.822;2023-02-12T03:06:58;101754.63;;;3.36;84.20
76994;BME280;66749;47.406;18.822;2023-02-12T03:07:41;101756.34;;;3.31;84.26
76994;BME280;66749;47.406;18.822;2023-02-12T03:08:19;101758.94;;;3.32;84.13
76994;BME280;66749;47.406;18.822;2023-02-12T03:09:01;101754.63;;;3.30;84.15
76994;BME280;66749;47.406;18.822;2023-02-12T03:09:40;101758.09;;;3.27;84.72
76994;BME280;66749;47.406;18.822;2023-02-12T03:10:25;101760.69;;;3.27;84.51
76994;BME280;66749;47.406;18.822;2023-02-12T03:11:17;101753.81;;;3.26;84.29
76994;BME280;66749;47.406;18.822;2023-02-12T03:11:54;101759.81;;;3.27;84.46
76994;BME280;66749;47.406;18.822;2023-02-12T03:12:45;101765.84;;;3.24;84.50
76994;BME280;66749;47.406;18.822;2023-02-12T03:15:00;101756.41;;;3.20;84.56
76994;BME280;66749;47.406;18.822;2023-02-12T03:15:37;101758.09;;;3.23;84.63
76994;BME280;66749;47.406;18.822;2023-02-12T03:16:57;101759.00;;;3.20;84.34
76994;BME280;66749;47.406;18.822;2023-02-12T03:17:36;101761.56;;;3.22;84.45
76994;BME280;66749;47.406;18.822;2023-02-12T03:18:23;101755.56;;;3.20;84.68
76994;BME280;66749;47.406;18.822;2023-02-12T03:19:10;101761.56;;;3.19;84.96
76994;BME280;66749;47.406;18.822;2023-02-12T03:19:49;101756.41;;;3.19;84.91
76994;BME280;66749;47.406;18.822;2023-02-12T03:20:31;101759.88;;;3.18;84.65
76994;BME280;66749;47.406;18.822;2023-02-12T03:21:11;101752.13;;;3.15;84.63
76994;BME280;66749;47.406;18.822;2023-02-12T03:22:06;101762.47;;;3.12;84.90
76994;BME280;66749;47.406;18.822;2023-02-12T03:22:44;101764.19;;;3.13;85.17
76994;BME280;66749;47.406;18.822;2023-02-12T03:25:00;101759.88;;;3.12;85.15
76994;BME280;66749;47.406;18.822;2023-02-12T03:25:54;101760.72;;;3.09;84.96
76994;BME280;66749;47.406;18.822;2023-02-12T03:27:19;101760.72;;;3.09;84.93
76994;BME280;66749;47.406;18.822;2023-02-12T03:27:59;101763.31;;;3.09;85.39